Shamrock — SIHM — position and weather

sailwx.info

Track history (hours):
 
Tides and Currents Weather Stations Pressure Air Temp Water Temp Dewpoint Dewpoint Depression Visibility Wind Speed Wind Dir Waves Ship Positions

Shamrock

Last reported at 2016-Aug-28 19:13 UTC. Time now 2016-Aug-28 20:36 UTC.
Position N 59°18' E 018°02'.

; draft 3 m.

Type: Sailing vessel. MMSI: 265572260.

Date/timePositionNaut miles runAvg speedWind from/ knotsBaromVisibWave heightAir tempDewpointWater temp
2016-Aug-28 19:13N 59°18' E 018°02'2 2.8
2016-Aug-28 18:32N 59°20' E 018°05'0 0.0
2016-Aug-28 17:32N 59°20' E 018°05'0 0.0
2016-Aug-28 16:32N 59°20' E 018°05'0 0.0
2016-Aug-28 15:32N 59°20' E 018°05'0 0.0
2016-Aug-28 14:33N 59°20' E 018°05'2 1.4
2016-Aug-28 13:11N 59°19' E 018°09'3 5.2
2016-Aug-28 12:33N 59°21' E 018°14'0 0.0
2016-Aug-26 18:21N 59°21' E 018°14'3 4.1
2016-Aug-26 17:34N 59°19' E 018°09'2 2.0
2016-Aug-26 16:33N 59°20' E 018°05'0 0.0
2016-Aug-26 13:27N 59°20' E 018°05'0 0.0
2016-Aug-26 12:33N 59°20' E 018°05'0 0.0
2016-Aug-26 11:33N 59°20' E 018°05'0 0.0
2016-Aug-26 10:33N 59°20' E 018°05'0 0.0
2016-Aug-26 09:30N 59°20' E 018°05'0 0.0
2016-Aug-26 08:33N 59°20' E 018°05'0 0.0
2016-Aug-26 07:33N 59°20' E 018°05'0 0.0
2016-Aug-26 06:33N 59°20' E 018°05'0 0.0
2016-Aug-26 04:33N 59°20' E 018°05'0 0.0
2016-Aug-26 03:33N 59°20' E 018°05'0 0.0
2016-Aug-26 02:33N 59°20' E 018°05'0 0.0
2016-Aug-26 01:30N 59°20' E 018°05'0 0.0
2016-Aug-26 00:33N 59°20' E 018°05'0 0.0
2016-Aug-25 23:33N 59°20' E 018°05'0 0.0
2016-Aug-25 22:33N 59°20' E 018°05'0 0.0
2016-Aug-25 21:33N 59°20' E 018°05'0 0.0
2016-Aug-25 20:33N 59°20' E 018°05'0 0.0
2016-Aug-25 19:33N 59°20' E 018°05'0 0.0
2016-Aug-25 18:33N 59°20' E 018°05'0 0.0
2016-Aug-25 17:27N 59°20' E 018°05'0 0.0
2016-Aug-25 04:32N 59°20' E 018°05'0 0.0
2016-Aug-25 03:32N 59°20' E 018°05'0 0.0
2016-Aug-25 02:32N 59°20' E 018°05'0 0.0
2016-Aug-25 01:29N 59°20' E 018°05'0 0.0
2016-Aug-25 00:32N 59°20' E 018°05'0 0.0
2016-Aug-24 23:23N 59°20' E 018°05'0 0.0
2016-Aug-24 22:32N 59°20' E 018°05'0 0.0
2016-Aug-24 21:32N 59°20' E 018°05'0 0.0
2016-Aug-24 20:32N 59°20' E 018°05'0 0.0
2016-Aug-24 19:32N 59°20' E 018°05'0 0.0
2016-Aug-24 18:32N 59°20' E 018°05'0 0.0
2016-Aug-24 17:29N 59°20' E 018°05'0 0.0
2016-Aug-24 16:32N 59°20' E 018°05'0 0.0
2016-Aug-24 15:32N 59°20' E 018°05'0 0.0
2016-Aug-24 14:32N 59°20' E 018°05'0 0.0
2016-Aug-24 13:29N 59°20' E 018°05'0 0.0
2016-Aug-24 12:32N 59°20' E 018°05'0 0.0
2016-Aug-24 11:32N 59°20' E 018°05'0 0.0
2016-Aug-24 10:32N 59°20' E 018°05'0 0.0
2016-Aug-24 09:32N 59°20' E 018°05'0 0.0
2016-Aug-24 08:32N 59°20' E 018°05'0 0.0
2016-Aug-24 07:32N 59°20' E 018°05'0 0.0
2016-Aug-24 03:33N 59°20' E 018°05'0 0.0
2016-Aug-24 02:33N 59°20' E 018°05'0 0.0
2016-Aug-24 01:33N 59°20' E 018°05'0 0.0
2016-Aug-24 00:33N 59°20' E 018°05'0 0.0
2016-Aug-23 23:33N 59°20' E 018°05'0 0.0
2016-Aug-23 22:33N 59°20' E 018°05'0 0.0
2016-Aug-23 21:33N 59°20' E 018°05'0 0.0
2016-Aug-23 19:14N 59°20' E 018°05'0 0.0
2016-Aug-23 18:32N 59°20' E 018°05'0 0.0
2016-Aug-23 16:06N 59°20' E 018°05'0 0.0
2016-Aug-23 15:33N 59°20' E 018°05'0 0.0
2016-Aug-23 13:33N 59°20' E 018°05'0 0.0
2016-Aug-23 12:33N 59°20' E 018°05'0 0.0
2016-Aug-23 11:33N 59°20' E 018°05'0 0.0
2016-Aug-23 10:33N 59°20' E 018°05'0 0.0
2016-Aug-23 09:33N 59°20' E 018°05'0 0.0
2016-Aug-23 08:30N 59°20' E 018°05'0 0.0
2016-Aug-23 07:33N 59°20' E 018°05'0 0.0
2016-Aug-23 06:33N 59°20' E 018°05'0 0.0
2016-Aug-23 05:33N 59°20' E 018°05'0 0.0
2016-Aug-23 04:33N 59°20' E 018°05'0 0.0
2016-Aug-23 03:30N 59°20' E 018°05'0 0.0
2016-Aug-23 02:30N 59°20' E 018°05'0 0.0
2016-Aug-23 01:33N 59°20' E 018°05'0 0.0
2016-Aug-23 00:33N 59°20' E 018°05'0 0.0
2016-Aug-22 23:30N 59°20' E 018°05'0 0.0
2016-Aug-22 22:33N 59°20' E 018°05'0 0.0
2016-Aug-22 21:33N 59°20' E 018°05'0 0.0
2016-Aug-22 20:33N 59°20' E 018°05'0 0.0
2016-Aug-22 19:33N 59°20' E 018°05'0 0.0
2016-Aug-22 18:33N 59°20' E 018°05'0 0.0
2016-Aug-22 17:33N 59°20' E 018°05'0 0.0
2016-Aug-22 16:33N 59°20' E 018°05'0 0.0
2016-Aug-22 15:33N 59°20' E 018°05'0 0.0
2016-Aug-22 13:21N 59°20' E 018°05'0 0.0
2016-Aug-22 12:33N 59°20' E 018°05'0 0.0
2016-Aug-22 11:30N 59°20' E 018°05'0 0.0
2016-Aug-22 10:33N 59°20' E 018°05'0 0.0
2016-Aug-22 09:33N 59°20' E 018°05'0 0.0
2016-Aug-22 08:33N 59°20' E 018°05'0 0.0
2016-Aug-22 07:33N 59°20' E 018°05'0 0.0
2016-Aug-22 06:33N 59°20' E 018°05'0 0.0
2016-Aug-22 05:33N 59°20' E 018°05'0 0.0
2016-Aug-22 04:33N 59°20' E 018°05'0 0.0
2016-Aug-22 03:33N 59°20' E 018°05'0 0.0
2016-Aug-22 02:33N 59°20' E 018°05'0 0.0
2016-Aug-22 01:33N 59°20' E 018°05'0 0.0
2016-Aug-22 00:33N 59°20' E 018°05'0 0.0
2016-Aug-21 23:21N 59°20' E 018°05'0 0.0
2016-Aug-21 22:33N 59°20' E 018°05'0 0.0
2016-Aug-21 21:30N 59°20' E 018°05'0 0.0
2016-Aug-21 20:30N 59°20' E 018°05'0 0.0
2016-Aug-21 19:33N 59°20' E 018°05'0 0.0
2016-Aug-21 18:30N 59°20' E 018°05'0 0.0
2016-Aug-21 17:33N 59°20' E 018°05'0 0.0
2016-Aug-21 16:24N 59°20' E 018°05'0 0.0
2016-Aug-21 15:30N 59°20' E 018°05'0 0.0
2016-Aug-21 13:33N 59°20' E 018°05'0 0.0
2016-Aug-21 12:33N 59°20' E 018°05'0 0.0
2016-Aug-21 11:33N 59°20' E 018°05'0 0.0
2016-Aug-21 10:33N 59°20' E 018°05'0 0.0
2016-Aug-21 09:33N 59°20' E 018°05'0 0.0
2016-Aug-21 08:33N 59°20' E 018°05'0 0.0
2016-Aug-21 07:33N 59°20' E 018°05'0 0.0
2016-Aug-21 06:33N 59°20' E 018°05'0 0.0
2016-Aug-21 05:33N 59°20' E 018°05'0 0.0
2016-Aug-21 04:24N 59°20' E 018°05'0 0.0
2016-Aug-21 03:33N 59°20' E 018°05'0 0.0
2016-Aug-21 02:33N 59°20' E 018°05'0 0.0
2016-Aug-21 01:33N 59°20' E 018°05'0 0.0
2016-Aug-21 00:33N 59°20' E 018°05'0 0.0
2016-Aug-20 23:33N 59°20' E 018°05'0 0.0
2016-Aug-20 22:33N 59°20' E 018°05'0 0.0
2016-Aug-20 21:30N 59°20' E 018°05'0 0.0
2016-Aug-20 20:30N 59°20' E 018°05'0 0.0
2016-Aug-20 19:33N 59°20' E 018°05'0 0.0
2016-Aug-20 18:30N 59°20' E 018°05'0 0.0
2016-Aug-20 17:33N 59°20' E 018°05'0 0.0
2016-Aug-20 16:33N 59°20' E 018°05'0 0.0
2016-Aug-20 15:33N 59°20' E 018°05'0 0.0
2016-Aug-20 14:33N 59°20' E 018°05'0 0.0
2016-Aug-20 13:05N 59°20' E 018°05'0 0.0
2016-Aug-20 12:32N 59°20' E 018°05'0 0.0
2016-Aug-20 11:32N 59°20' E 018°05'0 0.0
2016-Aug-20 10:32N 59°20' E 018°05'0 0.0
2016-Aug-20 09:32N 59°20' E 018°05'0 0.0
2016-Aug-20 08:29N 59°20' E 018°05'0 0.0
2016-Aug-20 07:32N 59°20' E 018°05'0 0.0
2016-Aug-20 06:32N 59°20' E 018°05'0 0.0
2016-Aug-20 05:32N 59°20' E 018°05'0 0.0
2016-Aug-20 04:32N 59°20' E 018°05'0 0.0
2016-Aug-20 03:32N 59°20' E 018°05'0 0.0
2016-Aug-20 02:32N 59°20' E 018°05'0 0.0
2016-Aug-20 01:32N 59°20' E 018°05'0 0.0
2016-Aug-20 00:32N 59°20' E 018°05'0 0.0
2016-Aug-19 23:28N 59°20' E 018°05'0 0.0
2016-Aug-19 22:32N 59°20' E 018°05'0 0.0
2016-Aug-19 21:32N 59°20' E 018°05'0 0.0
2016-Aug-19 20:32N 59°20' E 018°05'0 0.0
2016-Aug-19 19:32N 59°20' E 018°05'0 0.0
2016-Aug-19 18:32N 59°20' E 018°05'0 0.0
2016-Aug-19 17:29N 59°20' E 018°05'0 0.0
2016-Aug-19 16:32N 59°20' E 018°05'0 0.0
2016-Aug-19 15:32N 59°20' E 018°05'0 0.0
2016-Aug-19 13:32N 59°20' E 018°05'0 0.0
2016-Aug-19 12:32N 59°20' E 018°05'0 0.0
2016-Aug-19 11:32N 59°20' E 018°05'0 0.0
2016-Aug-19 10:32N 59°20' E 018°05'0 0.0
2016-Aug-19 09:32N 59°20' E 018°05'0 0.0
2016-Aug-19 08:32N 59°20' E 018°05'0 0.0
2016-Aug-19 07:29N 59°20' E 018°05'0 0.0
2016-Aug-19 06:32N 59°20' E 018°05'0 0.0
2016-Aug-19 05:32N 59°20' E 018°05'0 0.0
2016-Aug-19 04:32N 59°20' E 018°05'0 0.0
2016-Aug-19 03:32N 59°20' E 018°05'0 0.0
2016-Aug-19 02:29N 59°20' E 018°05'0 0.0
2016-Aug-19 01:32N 59°20' E 018°05'0 0.0
2016-Aug-19 00:32N 59°20' E 018°05'0 0.0
2016-Aug-18 23:32N 59°20' E 018°05'0 0.0
2016-Aug-18 22:33N 59°20' E 018°05'0 0.0
2016-Aug-18 21:33N 59°20' E 018°05'0 0.0
2016-Aug-18 20:33N 59°20' E 018°05'0 0.0
2016-Aug-18 19:33N 59°20' E 018°05'  
Track history (hours):
 
Tides and Currents Weather Stations Pressure Air Temp Water Temp Dewpoint Dewpoint Depression Visibility Wind Speed Wind Dir Waves Ship Positions

Shamrock

Last reported at 2016-Aug-28 19:13 UTC. Time now 2016-Aug-28 20:36 UTC.
Position N 59°18' E 018°02'.

; draft 3 m.

Type: Sailing vessel. MMSI: 265572260.

Date/timePositionNaut miles runAvg speedWind from/ knotsBaromVisibWave heightAir tempDewpointWater temp
2016-Aug-28 19:13N 59°18' E 018°02'2 2.8
2016-Aug-28 18:32N 59°20' E 018°05'0 0.0
2016-Aug-28 17:32N 59°20' E 018°05'0 0.0
2016-Aug-28 16:32N 59°20' E 018°05'0 0.0
2016-Aug-28 15:32N 59°20' E 018°05'0 0.0
2016-Aug-28 14:33N 59°20' E 018°05'2 1.4
2016-Aug-28 13:11N 59°19' E 018°09'3 5.2
2016-Aug-28 12:33N 59°21' E 018°14'0 0.0
2016-Aug-26 18:21N 59°21' E 018°14'3 4.1
2016-Aug-26 17:34N 59°19' E 018°09'2 2.0
2016-Aug-26 16:33N 59°20' E 018°05'0 0.0
2016-Aug-26 13:27N 59°20' E 018°05'0 0.0
2016-Aug-26 12:33N 59°20' E 018°05'0 0.0
2016-Aug-26 11:33N 59°20' E 018°05'0 0.0
2016-Aug-26 10:33N 59°20' E 018°05'0 0.0
2016-Aug-26 09:30N 59°20' E 018°05'0 0.0
2016-Aug-26 08:33N 59°20' E 018°05'0 0.0
2016-Aug-26 07:33N 59°20' E 018°05'0 0.0
2016-Aug-26 06:33N 59°20' E 018°05'0 0.0
2016-Aug-26 04:33N 59°20' E 018°05'0 0.0
2016-Aug-26 03:33N 59°20' E 018°05'0 0.0
2016-Aug-26 02:33N 59°20' E 018°05'0 0.0
2016-Aug-26 01:30N 59°20' E 018°05'0 0.0
2016-Aug-26 00:33N 59°20' E 018°05'0 0.0
2016-Aug-25 23:33N 59°20' E 018°05'0 0.0
2016-Aug-25 22:33N 59°20' E 018°05'0 0.0
2016-Aug-25 21:33N 59°20' E 018°05'0 0.0
2016-Aug-25 20:33N 59°20' E 018°05'0 0.0
2016-Aug-25 19:33N 59°20' E 018°05'0 0.0
2016-Aug-25 18:33N 59°20' E 018°05'0 0.0
2016-Aug-25 17:27N 59°20' E 018°05'0 0.0
2016-Aug-25 04:32N 59°20' E 018°05'0 0.0
2016-Aug-25 03:32N 59°20' E 018°05'0 0.0
2016-Aug-25 02:32N 59°20' E 018°05'0 0.0
2016-Aug-25 01:29N 59°20' E 018°05'0 0.0
2016-Aug-25 00:32N 59°20' E 018°05'0 0.0
2016-Aug-24 23:23N 59°20' E 018°05'0 0.0
2016-Aug-24 22:32N 59°20' E 018°05'0 0.0
2016-Aug-24 21:32N 59°20' E 018°05'0 0.0
2016-Aug-24 20:32N 59°20' E 018°05'0 0.0
2016-Aug-24 19:32N 59°20' E 018°05'0 0.0
2016-Aug-24 18:32N 59°20' E 018°05'0 0.0
2016-Aug-24 17:29N 59°20' E 018°05'0 0.0
2016-Aug-24 16:32N 59°20' E 018°05'0 0.0
2016-Aug-24 15:32N 59°20' E 018°05'0 0.0
2016-Aug-24 14:32N 59°20' E 018°05'0 0.0
2016-Aug-24 13:29N 59°20' E 018°05'0 0.0
2016-Aug-24 12:32N 59°20' E 018°05'0 0.0
2016-Aug-24 11:32N 59°20' E 018°05'0 0.0
2016-Aug-24 10:32N 59°20' E 018°05'0 0.0
2016-Aug-24 09:32N 59°20' E 018°05'0 0.0
2016-Aug-24 08:32N 59°20' E 018°05'0 0.0
2016-Aug-24 07:32N 59°20' E 018°05'0 0.0
2016-Aug-24 03:33N 59°20' E 018°05'0 0.0
2016-Aug-24 02:33N 59°20' E 018°05'0 0.0
2016-Aug-24 01:33N 59°20' E 018°05'0 0.0
2016-Aug-24 00:33N 59°20' E 018°05'0 0.0
2016-Aug-23 23:33N 59°20' E 018°05'0 0.0
2016-Aug-23 22:33N 59°20' E 018°05'0 0.0
2016-Aug-23 21:33N 59°20' E 018°05'0 0.0
2016-Aug-23 19:14N 59°20' E 018°05'0 0.0
2016-Aug-23 18:32N 59°20' E 018°05'0 0.0
2016-Aug-23 16:06N 59°20' E 018°05'0 0.0
2016-Aug-23 15:33N 59°20' E 018°05'0 0.0
2016-Aug-23 13:33N 59°20' E 018°05'0 0.0
2016-Aug-23 12:33N 59°20' E 018°05'0 0.0
2016-Aug-23 11:33N 59°20' E 018°05'0 0.0
2016-Aug-23 10:33N 59°20' E 018°05'0 0.0
2016-Aug-23 09:33N 59°20' E 018°05'0 0.0
2016-Aug-23 08:30N 59°20' E 018°05'0 0.0
2016-Aug-23 07:33N 59°20' E 018°05'0 0.0
2016-Aug-23 06:33N 59°20' E 018°05'0 0.0
2016-Aug-23 05:33N 59°20' E 018°05'0 0.0
2016-Aug-23 04:33N 59°20' E 018°05'0 0.0
2016-Aug-23 03:30N 59°20' E 018°05'0 0.0
2016-Aug-23 02:30N 59°20' E 018°05'0 0.0
2016-Aug-23 01:33N 59°20' E 018°05'0 0.0
2016-Aug-23 00:33N 59°20' E 018°05'0 0.0
2016-Aug-22 23:30N 59°20' E 018°05'0 0.0
2016-Aug-22 22:33N 59°20' E 018°05'0 0.0
2016-Aug-22 21:33N 59°20' E 018°05'0 0.0
2016-Aug-22 20:33N 59°20' E 018°05'0 0.0
2016-Aug-22 19:33N 59°20' E 018°05'0 0.0
2016-Aug-22 18:33N 59°20' E 018°05'0 0.0
2016-Aug-22 17:33N 59°20' E 018°05'0 0.0
2016-Aug-22 16:33N 59°20' E 018°05'0 0.0
2016-Aug-22 15:33N 59°20' E 018°05'0 0.0
2016-Aug-22 13:21N 59°20' E 018°05'0 0.0
2016-Aug-22 12:33N 59°20' E 018°05'0 0.0
2016-Aug-22 11:30N 59°20' E 018°05'0 0.0
2016-Aug-22 10:33N 59°20' E 018°05'0 0.0
2016-Aug-22 09:33N 59°20' E 018°05'0 0.0
2016-Aug-22 08:33N 59°20' E 018°05'0 0.0
2016-Aug-22 07:33N 59°20' E 018°05'0 0.0
2016-Aug-22 06:33N 59°20' E 018°05'0 0.0
2016-Aug-22 05:33N 59°20' E 018°05'0 0.0
2016-Aug-22 04:33N 59°20' E 018°05'0 0.0
2016-Aug-22 03:33N 59°20' E 018°05'0 0.0
2016-Aug-22 02:33N 59°20' E 018°05'0 0.0
2016-Aug-22 01:33N 59°20' E 018°05'0 0.0
2016-Aug-22 00:33N 59°20' E 018°05'0 0.0
2016-Aug-21 23:21N 59°20' E 018°05'0 0.0
2016-Aug-21 22:33N 59°20' E 018°05'0 0.0
2016-Aug-21 21:30N 59°20' E 018°05'0 0.0
2016-Aug-21 20:30N 59°20' E 018°05'0 0.0
2016-Aug-21 19:33N 59°20' E 018°05'0 0.0
2016-Aug-21 18:30N 59°20' E 018°05'0 0.0
2016-Aug-21 17:33N 59°20' E 018°05'0 0.0
2016-Aug-21 16:24N 59°20' E 018°05'0 0.0
2016-Aug-21 15:30N 59°20' E 018°05'0 0.0
2016-Aug-21 13:33N 59°20' E 018°05'0 0.0
2016-Aug-21 12:33N 59°20' E 018°05'0 0.0
2016-Aug-21 11:33N 59°20' E 018°05'0 0.0
2016-Aug-21 10:33N 59°20' E 018°05'0 0.0
2016-Aug-21 09:33N 59°20' E 018°05'0 0.0
2016-Aug-21 08:33N 59°20' E 018°05'0 0.0
2016-Aug-21 07:33N 59°20' E 018°05'0 0.0
2016-Aug-21 06:33N 59°20' E 018°05'0 0.0
2016-Aug-21 05:33N 59°20' E 018°05'0 0.0
2016-Aug-21 04:24N 59°20' E 018°05'0 0.0
2016-Aug-21 03:33N 59°20' E 018°05'0 0.0
2016-Aug-21 02:33N 59°20' E 018°05'0 0.0
2016-Aug-21 01:33N 59°20' E 018°05'0 0.0
2016-Aug-21 00:33N 59°20' E 018°05'0 0.0
2016-Aug-20 23:33N 59°20' E 018°05'0 0.0
2016-Aug-20 22:33N 59°20' E 018°05'0 0.0
2016-Aug-20 21:30N 59°20' E 018°05'0 0.0
2016-Aug-20 20:30N 59°20' E 018°05'0 0.0
2016-Aug-20 19:33N 59°20' E 018°05'0 0.0
2016-Aug-20 18:30N 59°20' E 018°05'0 0.0
2016-Aug-20 17:33N 59°20' E 018°05'0 0.0
2016-Aug-20 16:33N 59°20' E 018°05'0 0.0
2016-Aug-20 15:33N 59°20' E 018°05'0 0.0
2016-Aug-20 14:33N 59°20' E 018°05'0 0.0
2016-Aug-20 13:05N 59°20' E 018°05'0 0.0
2016-Aug-20 12:32N 59°20' E 018°05'0 0.0
2016-Aug-20 11:32N 59°20' E 018°05'0 0.0
2016-Aug-20 10:32N 59°20' E 018°05'0 0.0
2016-Aug-20 09:32N 59°20' E 018°05'0 0.0
2016-Aug-20 08:29N 59°20' E 018°05'0 0.0
2016-Aug-20 07:32N 59°20' E 018°05'0 0.0
2016-Aug-20 06:32N 59°20' E 018°05'0 0.0
2016-Aug-20 05:32N 59°20' E 018°05'0 0.0
2016-Aug-20 04:32N 59°20' E 018°05'0 0.0
2016-Aug-20 03:32N 59°20' E 018°05'0 0.0
2016-Aug-20 02:32N 59°20' E 018°05'0 0.0
2016-Aug-20 01:32N 59°20' E 018°05'0 0.0
2016-Aug-20 00:32N 59°20' E 018°05'0 0.0
2016-Aug-19 23:28N 59°20' E 018°05'0 0.0
2016-Aug-19 22:32N 59°20' E 018°05'0 0.0
2016-Aug-19 21:32N 59°20' E 018°05'0 0.0
2016-Aug-19 20:32N 59°20' E 018°05'0 0.0
2016-Aug-19 19:32N 59°20' E 018°05'0 0.0
2016-Aug-19 18:32N 59°20' E 018°05'0 0.0
2016-Aug-19 17:29N 59°20' E 018°05'0 0.0
2016-Aug-19 16:32N 59°20' E 018°05'0 0.0
2016-Aug-19 15:32N 59°20' E 018°05'0 0.0
2016-Aug-19 13:32N 59°20' E 018°05'0 0.0
2016-Aug-19 12:32N 59°20' E 018°05'0 0.0
2016-Aug-19 11:32N 59°20' E 018°05'0 0.0
2016-Aug-19 10:32N 59°20' E 018°05'0 0.0
2016-Aug-19 09:32N 59°20' E 018°05'0 0.0
2016-Aug-19 08:32N 59°20' E 018°05'0 0.0
2016-Aug-19 07:29N 59°20' E 018°05'0 0.0
2016-Aug-19 06:32N 59°20' E 018°05'0 0.0
2016-Aug-19 05:32N 59°20' E 018°05'0 0.0
2016-Aug-19 04:32N 59°20' E 018°05'0 0.0
2016-Aug-19 03:32N 59°20' E 018°05'0 0.0
2016-Aug-19 02:29N 59°20' E 018°05'0 0.0
2016-Aug-19 01:32N 59°20' E 018°05'0 0.0
2016-Aug-19 00:32N 59°20' E 018°05'0 0.0
2016-Aug-18 23:32N 59°20' E 018°05'0 0.0
2016-Aug-18 22:33N 59°20' E 018°05'0 0.0
2016-Aug-18 21:33N 59°20' E 018°05'0 0.0
2016-Aug-18 20:33N 59°20' E 018°05'0 0.0
2016-Aug-18 19:33N 59°20' E 018°05'  

Dump ship's entire track history